Time;durP1;ratioP1;P1;durP2;ratioP2;P2;SDS_P1;SDS_P2;PMS_P1;PMS_P2;Temp;Humidity;BMP_temperature;BMP_pressure;BME280_temperature;BME280_humidity;BME280_pressure;Samples;Min_cycle;Max_cycle;Signal;HPM_P1;HPM_P2
2023/09/19 00:00:44;;;;;;;23.85;6.97;;;22.50;99.90;;;;;;4989887;28;20041;-63
2023/09/19 00:03:48;;;;;;;34.13;8.85;;;22.50;99.90;;;;;;4993732;28;20053;-61
2023/09/19 00:06:53;;;;;;;36.78;7.88;;;22.40;99.90;;;;;;4990208;28;20045;-62
2023/09/19 00:09:57;;;;;;;30.95;7.47;;;22.40;99.90;;;;;;4994017;28;20050;-63
2023/09/19 00:13:05;;;;;;;40.28;8.63;;;22.30;99.90;;;;;;4992956;28;20049;-63
2023/09/19 00:16:12;;;;;;;35.58;7.97;;;22.30;99.90;;;;;;4992587;28;20046;-63
2023/09/19 00:19:16;;;;;;;35.42;8.20;;;22.20;99.90;;;;;;5002011;28;20057;-63
2023/09/19 00:22:20;;;;;;;34.75;9.65;;;22.20;99.90;;;;;;4992050;28;20037;-61
2023/09/19 00:25:26;;;;;;;30.55;8.20;;;22.10;99.90;;;;;;4993475;28;20055;-61
2023/09/19 00:28:31;;;;;;;33.00;8.25;;;22.00;99.90;;;;;;4994042;28;20026;-62
2023/09/19 00:31:37;;;;;;;40.08;8.38;;;21.90;99.90;;;;;;4987792;28;20413;-62
2023/09/19 00:34:42;;;;;;;43.80;9.05;;;22.00;99.90;;;;;;4993005;28;20049;-62
2023/09/19 00:37:46;;;;;;;30.30;7.82;;;22.00;99.90;;;;;;4993450;28;20089;-63
2023/09/19 00:40:53;;;;;;;42.35;8.40;;;22.00;99.90;;;;;;4991414;28;20460;-63
2023/09/19 00:43:58;;;;;;;31.42;8.63;;;22.00;99.90;;;;;;4991889;28;20049;-63
2023/09/19 00:47:02;;;;;;;34.10;8.30;;;22.00;99.90;;;;;;4993219;28;20045;-63
2023/09/19 00:50:08;;;;;;;31.60;8.73;;;22.00;99.90;;;;;;4991812;28;20053;-62
2023/09/19 00:53:19;;;;;;;30.42;7.93;;;22.00;99.90;;;;;;4992075;28;20045;-63
2023/09/19 00:56:23;;;;;;;35.80;8.43;;;22.00;99.90;;;;;;4993202;28;20397;-63
2023/09/19 00:59:29;;;;;;;29.88;7.50;;;22.00;99.90;;;;;;4986134;28;20045;-61
2023/09/19 01:02:35;;;;;;;53.85;9.60;;;21.90;99.90;;;;;;4992050;28;20045;-63
2023/09/19 01:05:39;;;;;;;30.77;8.98;;;21.90;99.90;;;;;;4992641;28;20037;-63
2023/09/19 01:08:43;;;;;;;27.45;8.80;;;21.80;99.90;;;;;;4990532;28;20441;-63
2023/09/19 01:11:53;;;;;;;27.70;9.07;;;21.80;99.90;;;;;;4992833;28;20053;-61
2023/09/19 01:15:06;;;;;;;40.95;8.63;;;21.80;99.90;;;;;;4992305;28;20053;-63
2023/09/19 01:18:25;;;;;;;29.13;7.72;;;21.80;99.90;;;;;;4986869;28;20049;-63
2023/09/19 01:21:42;;;;;;;27.77;8.25;;;21.70;99.90;;;;;;4992443;28;20034;-62
2023/09/19 01:25:25;;;;;;;28.08;9.10;;;21.80;99.90;;;;;;4992058;28;20046;-62
2023/09/19 01:28:53;;;;;;;31.75;9.77;;;21.80;99.90;;;;;;4986118;28;20041;-61
2023/09/19 01:32:01;;;;;;;27.25;8.73;;;21.80;99.90;;;;;;4992347;28;20049;-61
2023/09/19 01:35:05;;;;;;;24.00;7.97;;;21.80;99.90;;;;;;4984757;28;20414;-62
2023/09/19 01:38:09;;;;;;;28.70;8.75;;;21.90;99.90;;;;;;4991528;28;20520;-63
2023/09/19 01:41:22;;;;;;;28.42;8.05;;;21.80;99.90;;;;;;4985765;28;20053;-61
2023/09/19 01:44:48;;;;;;;34.08;8.68;;;21.80;99.90;;;;;;4985367;28;20053;-63
2023/09/19 01:47:56;;;;;;;23.85;8.57;;;21.80;99.90;;;;;;4991714;28;20045;-61
2023/09/19 01:51:06;;;;;;;23.80;7.93;;;21.70;99.90;;;;;;4990538;28;20049;-63
2023/09/19 01:54:13;;;;;;;28.58;9.10;;;21.70;99.90;;;;;;4990536;28;20038;-63
2023/09/19 01:57:43;;;;;;;29.67;7.85;;;21.60;99.90;;;;;;4991626;28;20061;-62
2023/09/19 02:00:51;;;;;;;26.38;8.52;;;21.60;99.90;;;;;;4988996;28;20523;-60
2023/09/19 02:03:56;;;;;;;37.13;8.80;;;21.50;99.90;;;;;;4998745;28;20369;-63
2023/09/19 02:07:01;;;;;;;27.23;8.75;;;21.50;99.90;;;;;;4991020;28;20045;-63
2023/09/19 02:10:06;;;;;;;23.92;7.85;;;21.50;99.90;;;;;;4990424;28;20046;-63
2023/09/19 02:13:11;;;;;;;28.17;8.07;;;21.50;99.90;;;;;;4989625;28;20053;-63
2023/09/19 02:16:17;;;;;;;27.15;7.22;;;21.40;99.90;;;;;;4991541;28;20037;-63
2023/09/19 02:19:21;;;;;;;41.47;8.43;;;21.40;99.90;;;;;;4990662;28;20057;-62
2023/09/19 02:22:25;;;;;;;22.13;7.68;;;21.40;99.90;;;;;;4991544;28;20053;-63
2023/09/19 02:25:30;;;;;;;30.65;8.57;;;21.40;99.90;;;;;;4991404;28;20045;-63
2023/09/19 02:28:35;;;;;;;30.85;9.05;;;21.50;99.90;;;;;;4989179;28;20397;-61
2023/09/19 02:31:39;;;;;;;32.35;7.55;;;21.50;99.90;;;;;;4991523;28;20037;-63
2023/09/19 02:34:44;;;;;;;29.42;8.10;;;21.50;99.90;;;;;;4991181;28;20118;-63
2023/09/19 02:37:49;;;;;;;26.15;7.70;;;21.50;99.90;;;;;;4987987;28;20073;-62
2023/09/19 02:40:54;;;;;;;22.73;8.05;;;21.50;99.90;;;;;;4991429;28;20520;-62
2023/09/19 02:43:59;;;;;;;24.50;6.80;;;21.50;99.90;;;;;;4990676;28;20057;-62
2023/09/19 02:47:05;;;;;;;25.30;7.40;;;21.60;99.90;;;;;;4982637;28;20042;-63
2023/09/19 02:50:11;;;;;;;24.52;8.07;;;21.60;99.90;;;;;;4991306;28;20041;-62
2023/09/19 02:53:15;;;;;;;24.90;7.25;;;21.50;99.90;;;;;;4991157;28;20045;-62
2023/09/19 02:56:19;;;;;;;24.02;7.00;;;21.50;99.90;;;;;;4989083;28;20045;-62
2023/09/19 02:59:24;;;;;;;29.13;6.97;;;21.50;99.90;;;;;;4990466;28;20398;-62
2023/09/19 03:02:32;;;;;;;24.10;7.07;;;21.50;99.90;;;;;;4994105;28;20045;-63
2023/09/19 03:05:38;;;;;;;30.88;8.32;;;21.50;99.90;;;;;;4989240;28;20037;-63
2023/09/19 03:08:43;;;;;;;32.42;8.05;;;21.50;99.90;;;;;;4992613;28;20486;-63
2023/09/19 03:11:48;;;;;;;30.45;7.80;;;21.40;99.90;;;;;;4991582;28;20041;-62
2023/09/19 03:14:52;;;;;;;28.92;7.50;;;21.30;99.90;;;;;;4990020;28;20046;-63
2023/09/19 03:17:57;;;;;;;26.02;7.38;;;21.20;99.90;;;;;;4994125;28;20574;-63
2023/09/19 03:21:02;;;;;;;29.38;7.82;;;21.20;99.90;;;;;;4993427;28;20045;-63
2023/09/19 03:24:07;;;;;;;25.92;7.20;;;21.20;99.90;;;;;;4993570;28;20050;-63
2023/09/19 03:27:15;;;;;;;24.58;7.95;;;21.10;99.90;;;;;;4991764;28;20041;-63
2023/09/19 03:30:20;;;;;;;26.50;7.85;;;21.10;99.90;;;;;;4997188;28;20038;-62
2023/09/19 03:33:24;;;;;;;25.58;8.55;;;21.10;99.90;;;;;;4993714;28;20050;-63
2023/09/19 03:36:29;;;;;;;24.98;7.63;;;21.10;99.90;;;;;;4991273;28;20053;-62
2023/09/19 03:39:33;;;;;;;27.90;7.38;;;21.00;99.90;;;;;;4993724;28;20049;-63
2023/09/19 03:42:41;;;;;;;36.10;8.00;;;21.00;99.90;;;;;;4993464;28;20037;-62
2023/09/19 03:45:50;;;;;;;25.38;8.30;;;21.10;99.90;;;;;;4989222;28;20045;-63
2023/09/19 03:48:55;;;;;;;21.67;7.47;;;21.10;99.90;;;;;;4993546;28;20045;-63
2023/09/19 03:52:01;;;;;;;25.83;7.32;;;21.10;99.90;;;;;;4992289;28;20037;-63
2023/09/19 03:55:05;;;;;;;32.42;8.13;;;21.00;99.90;;;;;;4992062;28;20045;-63
2023/09/19 03:58:10;;;;;;;22.70;7.68;;;20.90;99.90;;;;;;4993436;28;20057;-62
2023/09/19 04:01:14;;;;;;;27.85;7.90;;;20.90;99.90;;;;;;4992253;28;20065;-63
2023/09/19 04:04:18;;;;;;;23.02;7.88;;;20.80;99.90;;;;;;4993678;28;20049;-63
2023/09/19 04:07:22;;;;;;;27.95;7.88;;;20.80;99.90;;;;;;4988797;28;20042;-63
2023/09/19 04:10:26;;;;;;;27.95;8.38;;;20.80;99.90;;;;;;4981595;28;20045;-62
2023/09/19 04:13:32;;;;;;;28.67;8.73;;;20.80;99.90;;;;;;4992716;28;20049;-62
2023/09/19 04:16:36;;;;;;;30.25;8.05;;;20.60;99.90;;;;;;4992843;28;20049;-62
2023/09/19 04:19:41;;;;;;;29.10;8.45;;;20.60;99.90;;;;;;4987472;28;20045;-62
2023/09/19 04:22:45;;;;;;;26.67;8.75;;;20.60;99.90;;;;;;4992898;28;20050;-62
2023/09/19 04:25:50;;;;;;;25.73;7.10;;;20.60;99.90;;;;;;4992595;28;20053;-62
2023/09/19 04:28:56;;;;;;;23.52;7.35;;;20.60;99.90;;;;;;4992655;28;20041;-62
2023/09/19 04:31:59;;;;;;;28.73;8.10;;;20.70;99.90;;;;;;4975210;28;20065;-62
2023/09/19 04:35:06;;;;;;;20.52;7.38;;;20.70;99.90;;;;;;4993076;28;20073;-62
2023/09/19 04:38:09;;;;;;;25.33;7.45;;;20.80;99.90;;;;;;4993114;28;20409;-62
2023/09/19 04:41:15;;;;;;;26.00;7.40;;;20.80;99.90;;;;;;4986137;28;20053;-62
2023/09/19 04:44:19;;;;;;;27.73;8.63;;;20.70;99.90;;;;;;4992491;28;20046;-63
2023/09/19 04:47:23;;;;;;;26.55;7.80;;;20.80;99.90;;;;;;4993254;28;20037;-63
2023/09/19 04:50:27;;;;;;;33.05;7.80;;;20.80;99.90;;;;;;4992404;28;20042;-63
2023/09/19 04:53:31;;;;;;;22.10;7.60;;;20.80;99.90;;;;;;4992849;28;20053;-63
2023/09/19 04:56:35;;;;;;;27.58;8.18;;;20.90;99.90;;;;;;4993509;28;20496;-61
2023/09/19 04:59:41;;;;;;;24.92;8.43;;;20.90;99.90;;;;;;4988042;28;20397;-62
2023/09/19 05:02:48;;;;;;;28.88;8.27;;;20.90;99.90;;;;;;4988121;28;20046;-63
2023/09/19 05:05:52;;;;;;;34.13;8.68;;;20.90;99.90;;;;;;4993202;28;20500;-62
2023/09/19 05:08:56;;;;;;;28.05;7.68;;;21.00;99.90;;;;;;4991737;28;20053;-62
2023/09/19 05:12:00;;;;;;;28.80;8.63;;;21.00;99.90;;;;;;4992655;28;20061;-62
2023/09/19 05:15:06;;;;;;;26.27;7.63;;;21.10;99.90;;;;;;4992497;28;20509;-62
2023/09/19 05:18:11;;;;;;;23.73;7.30;;;21.20;99.90;;;;;;4992687;28;20042;-62
2023/09/19 05:21:15;;;;;;;34.90;7.32;;;21.10;99.90;;;;;;4991806;28;20413;-62
2023/09/19 05:24:19;;;;;;;28.10;7.80;;;21.00;99.90;;;;;;4991329;28;20045;-61
2023/09/19 05:27:23;;;;;;;19.10;6.85;;;21.00;99.90;;;;;;4991798;28;20041;-62
2023/09/19 05:30:27;;;;;;;21.42;7.55;;;21.00;99.90;;;;;;4983993;28;20041;-63
2023/09/19 05:33:31;;;;;;;29.83;8.68;;;21.00;99.90;;;;;;4980025;28;20049;-61
2023/09/19 05:36:35;;;;;;;21.00;6.72;;;21.00;99.90;;;;;;4985035;28;20053;-62
2023/09/19 05:39:39;;;;;;;24.73;7.72;;;20.90;99.90;;;;;;4984813;28;20045;-62
2023/09/19 05:42:43;;;;;;;33.10;7.75;;;21.00;99.90;;;;;;4983633;28;20045;-59
2023/09/19 05:45:48;;;;;;;33.00;7.38;;;21.00;99.90;;;;;;4990445;28;20118;-63
2023/09/19 05:48:52;;;;;;;26.30;8.20;;;21.10;99.90;;;;;;4987389;28;20041;-62
2023/09/19 05:51:58;;;;;;;19.30;7.53;;;21.10;99.90;;;;;;4986180;28;20457;-63
2023/09/19 05:55:07;;;;;;;33.00;7.63;;;21.20;99.90;;;;;;4987428;28;20033;-62
2023/09/19 05:58:13;;;;;;;25.50;7.28;;;21.30;99.90;;;;;;4987138;28;20045;-57
2023/09/19 06:01:17;;;;;;;23.83;7.53;;;21.50;99.90;;;;;;4987220;28;20049;-62
2023/09/19 06:04:22;;;;;;;26.05;7.28;;;21.60;99.90;;;;;;4983260;28;20033;-63
2023/09/19 06:07:26;;;;;;;32.13;7.35;;;21.70;99.90;;;;;;4982730;28;20045;-63
2023/09/19 06:10:31;;;;;;;28.70;7.75;;;21.80;99.90;;;;;;4990309;28;20037;-63
2023/09/19 06:13:35;;;;;;;22.27;6.60;;;21.90;99.90;;;;;;4984082;28;20053;-63
2023/09/19 06:16:41;;;;;;;26.30;8.38;;;22.00;99.90;;;;;;4985035;28;20042;-63
2023/09/19 06:19:47;;;;;;;25.63;5.68;;;22.10;99.90;;;;;;4986920;28;20057;-63
2023/09/19 06:22:51;;;;;;;31.33;6.35;;;22.20;99.90;;;;;;4980720;28;20041;-63
2023/09/19 06:25:56;;;;;;;28.30;6.18;;;22.30;99.90;;;;;;4984410;28;20050;-63
2023/09/19 06:29:00;;;;;;;22.33;5.85;;;22.30;99.90;;;;;;4980261;28;20041;-63
2023/09/19 06:32:08;;;;;;;20.00;5.78;;;22.30;99.90;;;;;;4985764;28;20061;-63
2023/09/19 06:35:14;;;;;;;20.90;6.20;;;22.50;99.90;;;;;;4983647;28;20046;-61
2023/09/19 06:38:19;;;;;;;29.05;5.85;;;22.60;99.90;;;;;;4988038;28;21261;-63
2023/09/19 06:41:24;;;;;;;23.13;5.80;;;22.60;99.90;;;;;;4982024;28;20046;-62
2023/09/19 06:44:29;;;;;;;28.80;6.38;;;22.70;99.90;;;;;;4983543;28;20053;-63
2023/09/19 06:47:33;;;;;;;17.10;5.75;;;22.90;99.90;;;;;;4983305;28;20836;-62
2023/09/19 06:50:38;;;;;;;27.63;6.80;;;23.20;99.90;;;;;;4990066;28;20045;-62
2023/09/19 06:53:43;;;;;;;25.92;5.25;;;23.30;99.90;;;;;;4980278;28;20044;-63
2023/09/19 06:56:47;;;;;;;20.50;5.72;;;23.40;99.90;;;;;;4987250;28;20065;-63
2023/09/19 06:59:51;;;;;;;26.55;6.88;;;23.40;99.90;;;;;;4986764;28;20528;-60
2023/09/19 07:02:56;;;;;;;16.58;5.50;;;23.50;99.90;;;;;;4982951;28;20049;-62
2023/09/19 07:06:00;;;;;;;24.00;6.18;;;24.90;99.90;;;;;;4987451;28;20049;-64
2023/09/19 07:09:04;;;;;;;22.27;5.93;;;25.70;99.90;;;;;;4983517;28;20508;-63
2023/09/19 07:12:08;;;;;;;19.23;6.00;;;26.40;99.90;;;;;;4988336;28;20626;-63
2023/09/19 07:15:13;;;;;;;13.30;4.85;;;26.60;99.90;;;;;;4990165;28;20042;-63
2023/09/19 07:18:17;;;;;;;19.60;5.38;;;26.80;99.90;;;;;;4985950;28;20046;-63
2023/09/19 07:21:22;;;;;;;16.85;4.55;;;27.50;99.90;;;;;;4984674;28;20097;-62
2023/09/19 07:24:28;;;;;;;19.10;5.28;;;27.90;99.90;;;;;;4981086;28;20504;-64
2023/09/19 07:27:32;;;;;;;18.42;4.32;;;28.30;99.90;;;;;;4987609;28;20045;-63
2023/09/19 07:30:37;;;;;;;19.38;4.07;;;30.00;99.90;;;;;;4983186;28;20504;-63
2023/09/19 07:33:41;;;;;;;18.42;4.18;;;32.00;99.90;;;;;;4979435;28;20050;-61
2023/09/19 07:36:47;;;;;;;14.93;4.15;;;32.90;99.90;;;;;;4985991;28;20400;-64
2023/09/19 07:39:51;;;;;;;16.58;4.18;;;33.30;99.90;;;;;;4986651;28;20049;-62
2023/09/19 07:42:55;;;;;;;13.85;3.78;;;34.30;99.50;;;;;;4980363;28;20058;-64
2023/09/19 07:46:05;;;;;;;14.68;3.85;;;33.80;98.60;;;;;;4988782;28;20254;-61
2023/09/19 07:49:10;;;;;;;19.67;3.63;;;33.80;99.10;;;;;;4991611;28;20046;-61
2023/09/19 07:52:15;;;;;;;13.68;3.72;;;35.10;97.10;;;;;;4986435;28;20508;-62
2023/09/19 07:55:25;;;;;;;15.60;3.70;;;34.70;96.30;;;;;;4986898;28;20057;-64
2023/09/19 07:58:33;;;;;;;14.43;3.67;;;35.10;96.80;;;;;;4977454;28;20049;-62
2023/09/19 08:01:37;;;;;;;15.27;3.50;;;36.50;95.20;;;;;;4985726;28;20045;-60
2023/09/19 08:04:46;;;;;;;13.23;3.30;;;37.60;94.40;;;;;;4977395;28;20058;-64
2023/09/19 08:07:50;;;;;;;21.10;4.45;;;39.60;92.60;;;;;;4986660;28;20053;-62
2023/09/19 08:10:58;;;;;;;14.10;3.08;;;40.40;91.40;;;;;;4982885;28;20049;-64
2023/09/19 08:14:02;;;;;;;16.83;3.53;;;40.70;89.70;;;;;;4984220;28;20061;-64
2023/09/19 08:17:09;;;;;;;13.02;3.40;;;40.80;88.90;;;;;;4989787;28;21328;-63
2023/09/19 08:20:17;;;;;;;10.75;3.28;;;41.70;86.80;;;;;;4990087;28;20413;-64
2023/09/19 08:23:21;;;;;;;10.73;3.17;;;41.10;84.90;;;;;;4983188;28;20069;-63
2023/09/19 08:26:25;;;;;;;13.18;3.75;;;39.10;87.20;;;;;;4982547;28;20038;-61
2023/09/19 08:29:29;;;;;;;16.35;4.20;;;34.30;90.80;;;;;;4991066;28;20053;-64
2023/09/19 08:32:33;;;;;;;13.27;3.67;;;34.20;93.10;;;;;;4982602;28;20033;-64
2023/09/19 08:35:39;;;;;;;18.33;3.38;;;36.40;91.40;;;;;;4981758;28;20045;-64
2023/09/19 08:38:43;;;;;;;15.13;3.13;;;37.80;88.70;;;;;;4988384;28;20050;-61
2023/09/19 08:41:48;;;;;;;15.80;3.75;;;38.50;88.90;;;;;;4977724;28;20049;-61
2023/09/19 08:44:54;;;;;;;14.82;3.72;;;38.80;87.40;;;;;;4979855;28;20053;-62
2023/09/19 08:48:25;;;;;;;12.85;3.92;;;35.50;90.60;;;;;;4985052;28;20045;-64
2023/09/19 08:51:46;;;;;;;13.05;3.53;;;33.30;92.20;;;;;;4985740;28;20057;-63
2023/09/19 08:54:53;;;;;;;14.23;3.55;;;34.80;92.10;;;;;;4983227;28;20045;-64
2023/09/19 08:58:04;;;;;;;13.23;3.72;;;34.00;91.70;;;;;;4978615;28;20428;-62
2023/09/19 09:01:10;;;;;;;16.88;4.30;;;34.50;91.50;;;;;;4981919;28;20070;-64
2023/09/19 09:04:14;;;;;;;15.00;4.47;;;37.10;90.10;;;;;;4986561;28;20046;-63
2023/09/19 09:07:20;;;;;;;13.23;3.17;;;40.80;86.60;;;;;;4982262;28;20046;-62
2023/09/19 09:10:25;;;;;;;11.13;3.40;;;42.90;83.60;;;;;;4983784;28;20034;-63
2023/09/19 09:13:30;;;;;;;9.68;2.80;;;40.90;81.10;;;;;;4985826;28;20045;-62
2023/09/19 09:16:35;;;;;;;11.38;3.50;;;39.50;83.90;;;;;;4985474;28;20045;-64
2023/09/19 09:19:39;;;;;;;11.75;3.40;;;41.90;81.50;;;;;;4981483;28;20554;-63
2023/09/19 09:22:54;;;;;;;10.73;2.75;;;42.40;80.10;;;;;;4988134;28;20053;-62
2023/09/19 09:26:02;;;;;;;12.20;3.22;;;42.60;78.70;;;;;;4983211;28;20397;-62
2023/09/19 09:29:06;;;;;;;14.60;3.05;;;44.20;77.10;;;;;;4984494;28;20041;-65
2023/09/19 09:32:20;;;;;;;12.00;3.20;;;44.30;74.60;;;;;;4990673;28;20049;-63
2023/09/19 09:35:24;;;;;;;12.70;4.22;;;44.40;75.40;;;;;;4981657;28;20053;-63
2023/09/19 09:38:43;;;;;;;9.40;3.03;;;43.00;75.00;;;;;;4982369;28;20045;-64
2023/09/19 09:41:47;;;;;;;13.20;3.57;;;44.30;74.50;;;;;;4985937;28;20548;-64
2023/09/19 09:45:28;;;;;;;11.65;3.30;;;42.80;74.30;;;;;;4980899;28;20046;-64
2023/09/19 09:48:32;;;;;;;11.32;3.38;;;40.10;77.70;;;;;;4982002;28;20048;-64
2023/09/19 09:51:39;;;;;;;8.15;2.78;;;40.20;78.50;;;;;;4982973;28;20520;-64
2023/09/19 09:55:08;;;;;;;11.70;3.33;;;42.30;76.90;;;;;;4988889;28;20057;-65
2023/09/19 09:58:18;;;;;;;15.00;3.20;;;43.40;74.00;;;;;;4987040;28;20401;-64
2023/09/19 10:01:26;;;;;;;10.10;3.20;;;42.30;74.70;;;;;;4984249;28;20291;-62
2023/09/19 10:04:36;;;;;;;17.17;3.95;;;41.60;74.50;;;;;;4983904;28;20049;-64
2023/09/19 10:07:50;;;;;;;11.02;2.95;;;40.30;75.20;;;;;;4987445;28;20088;-62
2023/09/19 10:11:03;;;;;;;12.05;3.00;;;38.00;78.90;;;;;;4988267;28;20401;-64
2023/09/19 10:14:10;;;;;;;9.43;3.08;;;38.70;78.00;;;;;;4989564;28;20435;-63
2023/09/19 10:17:20;;;;;;;10.30;3.22;;;43.10;75.00;;;;;;4986479;28;20049;-62
2023/09/19 10:20:33;;;;;;;11.35;3.03;;;46.00;71.70;;;;;;4984146;28;20049;-64
2023/09/19 10:23:40;;;;;;;10.57;3.15;;;42.40;70.50;;;;;;4989325;28;20114;-64
2023/09/19 10:26:45;;;;;;;12.45;2.65;;;42.80;72.20;;;;;;4977136;28;20041;-63
2023/09/19 10:29:57;;;;;;;11.13;3.10;;;39.00;73.90;;;;;;4982611;28;20050;-64
2023/09/19 10:33:02;;;;;;;12.65;2.95;;;41.20;73.50;;;;;;4983176;28;20053;-64
2023/09/19 10:36:09;;;;;;;12.20;3.20;;;40.80;72.80;;;;;;4986056;28;20041;-63
2023/09/19 10:39:21;;;;;;;12.00;3.20;;;39.10;74.50;;;;;;4983725;28;20045;-64
2023/09/19 10:42:29;;;;;;;9.43;2.55;;;37.80;76.50;;;;;;4984058;28;20050;-64
2023/09/19 10:45:35;;;;;;;14.35;3.78;;;37.90;75.90;;;;;;4982612;28;20045;-63
2023/09/19 10:48:40;;;;;;;17.27;3.30;;;40.20;75.50;;;;;;4981963;28;20041;-64
2023/09/19 10:51:47;;;;;;;13.15;2.90;;;37.70;75.50;;;;;;4983086;28;20049;-63
2023/09/19 10:54:57;;;;;;;14.57;3.47;;;34.80;78.90;;;;;;4983018;28;20061;-63
2023/09/19 10:58:14;;;;;;;14.07;3.40;;;34.60;81.70;;;;;;4978264;28;20042;-62
2023/09/19 11:01:20;;;;;;;12.38;3.28;;;33.00;82.00;;;;;;4988371;28;20045;-62
2023/09/19 11:04:36;;;;;;;16.98;3.53;;;32.70;84.50;;;;;;4983591;28;20038;-62
2023/09/19 11:08:12;;;;;;;10.30;3.13;;;33.80;83.00;;;;;;4983727;28;20065;-64
2023/09/19 11:11:38;;;;;;;12.25;3.75;;;32.10;85.70;;;;;;4971703;28;20488;-64
2023/09/19 11:14:45;;;;;;;16.10;3.67;;;31.50;86.10;;;;;;4986651;28;20046;-65
2023/09/19 11:17:52;;;;;;;9.32;3.05;;;33.00;85.80;;;;;;4989487;28;20046;-62
2023/09/19 11:21:24;;;;;;;7.53;2.97;;;35.90;81.50;;;;;;4984038;28;20683;-63
2023/09/19 11:24:34;;;;;;;11.15;3.17;;;37.70;78.20;;;;;;4987506;28;20401;-62
2023/09/19 11:31:45;;;;;;;8.70;2.83;;;38.10;76.80;;;;;;4987668;28;20049;-63
2023/09/19 11:34:50;;;;;;;13.23;3.03;;;40.40;76.00;;;;;;4991786;28;20058;-62
2023/09/19 11:37:56;;;;;;;12.88;2.83;;;40.90;74.70;;;;;;4987838;28;20054;-62
2023/09/19 11:41:21;;;;;;;9.10;2.55;;;40.90;75.00;;;;;;4990097;28;20057;-62
2023/09/19 11:44:38;;;;;;;8.73;2.97;;;40.50;74.50;;;;;;4992920;28;20508;-59
2023/09/19 11:47:44;;;;;;;14.73;3.20;;;39.50;75.40;;;;;;4985146;28;20040;-64
2023/09/19 11:50:50;;;;;;;7.80;2.95;;;38.30;76.60;;;;;;4984518;28;20045;-61
2023/09/19 11:53:59;;;;;;;11.05;3.35;;;37.90;77.70;;;;;;4988332;28;20045;-64
2023/09/19 11:57:04;;;;;;;11.18;3.25;;;39.60;76.50;;;;;;4993271;28;20053;-61
2023/09/19 12:00:18;;;;;;;12.98;2.97;;;41.40;74.00;;;;;;4988479;28;20041;-63
2023/09/19 12:03:22;;;;;;;9.73;2.80;;;43.50;71.60;;;;;;4990764;28;20041;-64
2023/09/19 12:06:29;;;;;;;10.73;3.08;;;40.60;71.70;;;;;;4992893;28;20049;-61
2023/09/19 12:09:33;;;;;;;11.85;3.13;;;40.40;74.00;;;;;;4986763;28;20050;-63
2023/09/19 12:12:37;;;;;;;6.07;2.10;;;39.50;74.20;;;;;;4994323;28;20043;-65
2023/09/19 12:15:45;;;;;;;15.43;2.85;;;40.40;72.90;;;;;;4990793;28;20049;-63
2023/09/19 12:18:50;;;;;;;11.73;2.95;;;40.10;73.60;;;;;;4991137;28;20046;-63
2023/09/19 12:21:57;;;;;;;8.98;2.90;;;38.80;75.70;;;;;;4988941;28;20069;-62
2023/09/19 12:25:08;;;;;;;14.73;3.10;;;37.20;77.30;;;;;;4988811;28;20060;-62
2023/09/19 12:28:12;;;;;;;14.00;3.10;;;35.10;80.10;;;;;;4990360;28;20045;-61
2023/09/19 12:31:18;;;;;;;7.70;2.90;;;34.00;82.00;;;;;;4992312;28;20041;-63
2023/09/19 12:34:23;;;;;;;10.85;2.75;;;33.50;83.10;;;;;;4991259;28;20053;-64
2023/09/19 12:37:29;;;;;;;13.32;3.72;;;34.70;81.80;;;;;;4992147;28;20132;-63
2023/09/19 12:40:35;;;;;;;10.00;2.63;;;35.20;78.60;;;;;;4984887;28;20053;-64
2023/09/19 12:43:41;;;;;;;8.13;2.47;;;38.20;76.70;;;;;;5017983;23;20082;-57
2023/09/19 12:46:46;;;;;;;9.98;2.95;;;38.20;73.70;;;;;;5005152;28;20045;-53
2023/09/19 12:50:06;;;;;;;8.60;2.22;;;39.20;73.00;;;;;;5011764;28;20041;-54
2023/09/19 12:53:26;;;;;;;7.70;2.30;;;38.50;71.10;;;;;;5010765;28;20064;-56
2023/09/19 12:56:44;;;;;;;8.00;2.35;;;38.20;71.20;;;;;;5025366;28;20056;-60
2023/09/19 12:59:52;;;;;;;10.52;2.30;;;37.60;72.50;;;;;;5023532;28;20048;-57
2023/09/19 13:03:17;;;;;;;11.32;2.50;;;40.10;71.30;;;;;;5032102;28;20052;-55
2023/09/19 13:06:43;;;;;;;8.82;2.60;;;41.00;68.80;;;;;;5027427;28;20048;-55
2023/09/19 13:10:08;;;;;;;14.35;2.88;;;42.00;68.60;;;;;;5032069;28;20048;-54
2023/09/19 13:13:44;;;;;;;6.05;2.00;;;41.90;68.20;;;;;;5032786;28;20036;-54
2023/09/19 13:17:03;;;;;;;7.13;2.15;;;42.30;66.50;;;;;;5026828;28;20050;-56
2023/09/19 13:20:32;;;;;;;6.57;2.03;;;41.60;66.80;;;;;;5030376;28;20047;-54
2023/09/19 13:23:37;;;;;;;8.65;2.95;;;40.30;68.00;;;;;;5029409;28;20428;-57
2023/09/19 13:26:40;;;;;;;8.40;2.17;;;40.50;68.30;;;;;;5032520;28;20052;-56
2023/09/19 13:29:44;;;;;;;8.07;2.58;;;39.90;68.00;;;;;;5029662;28;20048;-56
2023/09/19 13:32:48;;;;;;;10.35;2.92;;;38.70;70.40;;;;;;5017014;28;20048;-57
2023/09/19 13:35:52;;;;;;;12.48;2.95;;;38.10;70.80;;;;;;5026705;28;20408;-55
2023/09/19 13:38:57;;;;;;;7.22;2.80;;;36.10;73.70;;;;;;5027145;28;20044;-52
2023/09/19 13:42:02;;;;;;;9.65;2.72;;;36.50;73.10;;;;;;5027884;28;20060;-55
2023/09/19 13:45:07;;;;;;;10.07;2.90;;;36.80;72.40;;;;;;5028740;28;20515;-57
2023/09/19 13:48:11;;;;;;;10.23;2.58;;;37.50;72.00;;;;;;5031380;28;20045;-57
2023/09/19 13:51:15;;;;;;;6.95;2.90;;;38.30;71.00;;;;;;5028648;28;20068;-52
2023/09/19 13:54:20;;;;;;;12.70;3.25;;;38.90;70.50;;;;;;5029388;28;20068;-52
2023/09/19 13:57:25;;;;;;;9.15;2.65;;;39.50;69.60;;;;;;5026547;28;20499;-58
2023/09/19 14:00:29;;;;;;;8.18;2.40;;;39.00;69.10;;;;;;5031947;28;20045;-54
2023/09/19 14:03:33;;;;;;;10.03;2.97;;;37.30;70.40;;;;;;5028641;28;20052;-57
2023/09/19 14:06:37;;;;;;;8.20;2.08;;;36.00;71.60;;;;;;5023448;28;20063;-56
2023/09/19 14:09:41;;;;;;;9.48;2.28;;;36.60;71.20;;;;;;5024610;28;20032;-57
2023/09/19 14:12:46;;;;;;;24.52;2.40;;;36.40;70.60;;;;;;5024691;28;20072;-54
2023/09/19 14:15:50;;;;;;;7.35;2.10;;;37.10;70.70;;;;;;5031076;28;20068;-55
2023/09/19 14:18:54;;;;;;;8.00;2.25;;;37.50;69.50;;;;;;5026089;28;20045;-55
2023/09/19 14:21:59;;;;;;;8.82;2.50;;;37.40;69.10;;;;;;5027099;28;20510;-56
2023/09/19 14:25:04;;;;;;;10.02;2.50;;;37.00;70.40;;;;;;5026351;28;20056;-56
2023/09/19 14:28:08;;;;;;;7.47;2.75;;;35.90;70.70;;;;;;5030933;28;20048;-55
2023/09/19 14:31:13;;;;;;;12.05;2.72;;;35.70;71.70;;;;;;5024371;28;20036;-56
2023/09/19 14:34:17;;;;;;;10.98;2.92;;;33.90;72.60;;;;;;5029745;28;20044;-59
2023/09/19 14:37:21;;;;;;;7.57;2.42;;;33.90;72.70;;;;;;5031527;28;20408;-55
2023/09/19 14:40:25;;;;;;;8.40;2.22;;;34.40;72.80;;;;;;5023496;28;20049;-51
2023/09/19 14:43:30;;;;;;;12.88;3.53;;;34.30;73.50;;;;;;5026135;28;20048;-56
2023/09/19 14:46:36;;;;;;;7.55;2.50;;;34.20;73.50;;;;;;5026373;28;20040;-57
2023/09/19 14:49:40;;;;;;;6.03;2.72;;;33.90;73.70;;;;;;5013829;28;20033;-53
2023/09/19 14:52:44;;;;;;;7.45;2.25;;;33.20;74.10;;;;;;5024159;28;20101;-55
2023/09/19 14:55:51;;;;;;;7.28;2.50;;;32.70;74.80;;;;;;5032759;28;20397;-54
2023/09/19 14:58:56;;;;;;;10.00;2.30;;;32.10;74.20;;;;;;5021993;28;20044;-51
2023/09/19 15:01:59;;;;;;;13.70;2.58;;;32.30;75.20;;;;;;5028849;28;20063;-54
2023/09/19 15:05:04;;;;;;;8.27;2.22;;;32.10;75.80;;;;;;5034147;28;20048;-53
2023/09/19 15:08:08;;;;;;;8.73;2.47;;;31.70;75.70;;;;;;5026714;28;20057;-57
2023/09/19 15:11:19;;;;;;;4.55;2.00;;;31.70;75.80;;;;;;5034522;28;20041;-51
2023/09/19 15:14:28;;;;;;;7.10;2.50;;;31.60;75.50;;;;;;5034025;28;20049;-52
2023/09/19 15:17:32;;;;;;;9.10;2.50;;;31.40;75.40;;;;;;5034481;28;20408;-53
2023/09/19 15:20:43;;;;;;;10.88;2.17;;;31.30;75.90;;;;;;5033860;28;20052;-52
2023/09/19 15:23:47;;;;;;;10.38;2.42;;;31.20;76.00;;;;;;5032397;28;20064;-55
2023/09/19 15:26:51;;;;;;;8.63;2.63;;;30.90;75.70;;;;;;5031158;28;20427;-51
2023/09/19 15:29:55;;;;;;;7.28;2.20;;;30.70;75.90;;;;;;5031224;28;20040;-52
2023/09/19 15:32:59;;;;;;;8.15;2.45;;;30.50;76.30;;;;;;5027689;28;20049;-51
2023/09/19 15:36:06;;;;;;;6.68;2.03;;;30.40;75.80;;;;;;5034017;28;20403;-55
2023/09/19 15:39:10;;;;;;;6.68;2.15;;;30.20;76.80;;;;;;5033578;28;20061;-51
2023/09/19 15:42:16;;;;;;;10.82;2.42;;;30.00;77.60;;;;;;5031606;28;20263;-55
2023/09/19 15:45:19;;;;;;;6.88;2.47;;;29.90;77.60;;;;;;5031516;28;20044;-54
2023/09/19 15:48:23;;;;;;;9.88;2.25;;;29.70;77.50;;;;;;5032231;28;20045;-53
2023/09/19 15:51:28;;;;;;;8.25;2.53;;;29.60;77.40;;;;;;5033255;28;20044;-53
2023/09/19 15:54:33;;;;;;;7.13;2.33;;;29.40;78.50;;;;;;5033085;28;20412;-57
2023/09/19 15:57:38;;;;;;;4.13;1.85;;;29.20;78.40;;;;;;5033364;28;20048;-53
2023/09/19 16:00:42;;;;;;;10.82;2.63;;;29.10;78.50;;;;;;5032746;28;20048;-54
2023/09/19 16:03:47;;;;;;;8.30;2.10;;;29.20;78.50;;;;;;5032497;28;20052;-51
2023/09/19 16:06:51;;;;;;;6.97;2.38;;;29.00;77.40;;;;;;5032401;28;20522;-56